createdAt,value
2022-08-08T00:02:03.542Z,37.14
2022-08-08T00:04:49.444Z,37.20
2022-08-08T00:07:35.398Z,37.39
2022-08-08T00:10:15.203Z,37.52
2022-08-08T00:12:56.484Z,37.27
2022-08-08T00:15:56.451Z,37.50
2022-08-08T00:18:30.543Z,37.84
2022-08-08T00:21:06.091Z,37.64
2022-08-08T00:23:47.830Z,37.74
2022-08-08T00:26:29.691Z,37.94
2022-08-08T00:29:08.904Z,38.07
2022-08-08T00:32:14.886Z,37.95
2022-08-08T00:35:24.367Z,37.93
2022-08-08T00:38:32.402Z,38.19
2022-08-08T00:42:13.327Z,38.19
2022-08-08T00:45:44.598Z,38.12
2022-08-08T00:49:22.885Z,38.67
2022-08-08T00:52:21.300Z,38.86
2022-08-08T00:55:35.752Z,38.84
2022-08-08T00:58:55.255Z,39.00
2022-08-08T01:01:37.923Z,38.91
2022-08-08T01:05:28.976Z,39.28
2022-08-08T01:08:56.681Z,39.08
2022-08-08T01:12:04.755Z,39.41
2022-08-08T01:15:43.828Z,39.43
2022-08-08T01:19:02.589Z,39.45
2022-08-08T01:22:46.623Z,39.55
2022-08-08T01:26:13.278Z,39.99
2022-08-08T01:29:35.101Z,39.70
2022-08-08T01:33:27.728Z,39.72
2022-08-08T01:37:13.803Z,39.87
2022-08-08T01:40:05.952Z,40.03
2022-08-08T01:42:51.972Z,40.27
2022-08-08T01:45:54.221Z,40.03
2022-08-08T01:48:48.352Z,40.28
2022-08-08T01:52:04.654Z,40.48
2022-08-08T01:56:04.567Z,40.34
2022-08-08T01:58:32.242Z,40.70
2022-08-08T02:01:22.497Z,40.87
2022-08-08T02:04:11.661Z,40.55
2022-08-08T02:07:00.393Z,40.75
2022-08-08T02:10:04.132Z,40.75
2022-08-08T02:12:53.258Z,41.04
2022-08-08T02:15:38.596Z,40.96
2022-08-08T02:18:15.300Z,41.35
2022-08-08T02:21:18.165Z,41.42
2022-08-08T02:23:59.281Z,41.14
2022-08-08T02:26:34.839Z,41.52
2022-08-08T02:29:46.814Z,41.38
2022-08-08T02:33:02.209Z,41.42
2022-08-08T02:36:04.823Z,41.67
2022-08-08T02:38:55.853Z,41.99
2022-08-08T02:42:42.086Z,41.96
2022-08-08T02:46:08.088Z,41.96
2022-08-08T02:49:51.107Z,41.86
2022-08-08T02:52:51.587Z,42.05
2022-08-08T02:56:19.950Z,42.30
2022-08-08T02:59:58.348Z,42.25
2022-08-08T03:03:46.229Z,42.07
2022-08-08T03:07:20.004Z,42.53
2022-08-08T03:11:06.215Z,42.46
2022-08-08T03:15:59.847Z,42.69
2022-08-08T03:17:25.603Z,42.85
2022-08-08T03:20:08.319Z,43.14
2022-08-08T03:22:56.401Z,43.12
2022-08-08T03:25:35.770Z,43.24
2022-08-08T03:28:11.402Z,43.09
2022-08-08T03:30:48.750Z,43.30
2022-08-08T03:33:54.625Z,43.37
2022-08-08T03:36:13.750Z,43.28
2022-08-08T03:39:08.348Z,43.20
2022-08-08T03:42:27.862Z,43.35
2022-08-08T03:44:35.587Z,43.36
2022-08-08T03:47:19.843Z,43.54
2022-08-08T03:50:00.613Z,43.49
2022-08-08T03:52:36.866Z,43.66
2022-08-08T03:55:56.288Z,43.38
2022-08-08T03:58:35.257Z,43.62
2022-08-08T04:01:24.528Z,43.68
2022-08-08T04:03:58.044Z,43.58
2022-08-08T04:06:30.645Z,43.86
2022-08-08T04:09:08.850Z,44.04
2022-08-08T04:11:59.096Z,44.03
2022-08-08T04:14:39.698Z,44.03
2022-08-08T04:17:22.880Z,44.25
2022-08-08T04:20:04.887Z,44.16
2022-08-08T04:22:34.722Z,44.12
2022-08-08T04:25:07.277Z,44.19
2022-08-08T04:28:02.067Z,44.37
2022-08-08T04:30:27.852Z,44.32
2022-08-08T04:32:56.705Z,44.32
2022-08-08T04:35:34.487Z,44.38
2022-08-08T04:38:09.841Z,44.47
2022-08-08T04:40:53.656Z,44.28
2022-08-08T04:43:31.948Z,44.79
2022-08-08T04:46:18.590Z,44.49
2022-08-08T04:48:48.448Z,44.70
2022-08-08T04:51:17.471Z,44.60
2022-08-08T04:54:38.978Z,44.98
2022-08-08T04:56:46.232Z,44.82
2022-08-08T04:59:16.156Z,44.99
2022-08-08T05:01:48.172Z,45.04
2022-08-08T05:04:19.255Z,44.79
2022-08-08T05:06:50.566Z,45.13
2022-08-08T05:09:21.546Z,45.04
2022-08-08T05:11:56.766Z,44.88
2022-08-08T05:14:30.548Z,45.14
2022-08-08T05:17:09.003Z,44.97
2022-08-08T05:20:11.574Z,44.85
2022-08-08T05:22:36.281Z,45.18
2022-08-08T05:25:06.150Z,44.99
2022-08-08T05:27:41.682Z,44.99
2022-08-08T05:30:16.598Z,45.09
2022-08-08T05:32:57.054Z,44.89
2022-08-08T05:35:28.773Z,44.99
2022-08-08T05:38:30.478Z,44.89
2022-08-08T05:40:59.857Z,44.88
2022-08-08T05:43:39.366Z,44.81
2022-08-08T05:46:24.604Z,44.78
2022-08-08T05:48:56.674Z,44.85
2022-08-08T05:51:48.177Z,45.04
2022-08-08T05:54:26.839Z,45.11
2022-08-08T05:56:58.240Z,44.99
2022-08-08T05:59:53.609Z,44.78
2022-08-08T06:02:48.720Z,44.83
2022-08-08T06:05:34.954Z,45.10
2022-08-08T06:08:33.128Z,44.80
2022-08-08T06:11:07.249Z,45.05
2022-08-08T06:13:47.553Z,44.81
2022-08-08T06:16:27.568Z,44.67
2022-08-08T06:19:18.867Z,44.71
2022-08-08T06:21:57.913Z,44.69
2022-08-08T06:24:47.089Z,44.82
2022-08-08T06:27:22.689Z,44.54
2022-08-08T06:30:02.538Z,44.47
2022-08-08T06:32:47.635Z,44.38
2022-08-08T06:36:04.945Z,44.37
2022-08-08T06:38:14.412Z,44.27
2022-08-08T06:40:53.829Z,44.53
2022-08-08T06:43:34.377Z,44.46
2022-08-08T06:46:23.789Z,44.13
2022-08-08T06:48:56.031Z,43.90
2022-08-08T06:51:31.197Z,43.96
2022-08-08T06:54:15.624Z,44.05
2022-08-08T06:56:51.584Z,43.76
2022-08-08T06:59:21.949Z,43.53
2022-08-08T07:02:27.912Z,43.36
2022-08-08T07:04:58.392Z,43.21
2022-08-08T07:07:49.750Z,43.43
2022-08-08T07:10:21.706Z,42.90
2022-08-08T07:12:55.364Z,42.97
2022-08-08T07:16:05.017Z,43.01
2022-08-08T07:18:40.829Z,43.09
2022-08-08T07:21:21.223Z,42.97
2022-08-08T07:24:06.956Z,42.53
2022-08-08T07:26:52.980Z,42.46
2022-08-08T07:30:01.972Z,41.83
2022-08-08T07:32:15.625Z,41.41
2022-08-08T07:35:00.763Z,41.17
2022-08-08T07:37:49.588Z,40.68
2022-08-08T07:40:35.416Z,39.99
2022-08-08T07:43:09.199Z,39.58
2022-08-08T07:46:05.781Z,38.85
2022-08-08T07:48:34.423Z,38.53
2022-08-08T07:51:05.603Z,37.90
2022-08-08T07:54:01.110Z,37.84
2022-08-08T07:56:45.142Z,37.16
2022-08-08T07:59:19.468Z,36.56
2022-08-08T08:02:35.579Z,36.72
2022-08-08T08:05:03.553Z,36.06
2022-08-08T08:07:38.919Z,35.40
2022-08-08T08:10:14.273Z,34.91
2022-08-08T08:12:54.358Z,34.57
2022-08-08T08:15:32.034Z,34.14
2022-08-08T08:18:06.248Z,33.83
2022-08-08T08:20:44.008Z,33.37
2022-08-08T08:23:13.693Z,33.09
2022-08-08T08:25:55.197Z,32.87
2022-08-08T08:28:27.314Z,32.56
2022-08-08T08:31:04.643Z,31.98
2022-08-08T08:33:35.884Z,31.53
2022-08-08T08:36:18.556Z,31.17
2022-08-08T08:38:52.509Z,30.83
2022-08-08T08:41:43.241Z,30.17
2022-08-08T08:44:19.852Z,30.39
2022-08-08T08:46:58.481Z,30.30
2022-08-08T08:49:31.930Z,30.13
2022-08-08T08:52:04.696Z,29.80
2022-08-08T08:54:36.152Z,29.59
2022-08-08T08:57:15.960Z,29.49
2022-08-08T08:59:59.451Z,28.90
2022-08-08T09:02:37.220Z,28.65
2022-08-08T09:05:13.999Z,28.71
2022-08-08T09:08:12.777Z,28.44
2022-08-08T09:10:48.549Z,28.53
2022-08-08T09:13:27.815Z,27.96
2022-08-08T09:16:03.542Z,27.85
2022-08-08T09:18:33.406Z,27.13
2022-08-08T09:21:56.515Z,27.43
2022-08-08T09:23:52.123Z,26.81
2022-08-08T09:26:32.438Z,26.87
2022-08-08T09:29:08.223Z,26.18
2022-08-08T09:31:56.090Z,25.92
2022-08-08T09:34:35.449Z,25.53
2022-08-08T09:37:57.788Z,25.60
2022-08-08T09:40:11.856Z,25.34
2022-08-08T09:42:51.192Z,25.20
2022-08-08T09:46:01.172Z,24.62
2022-08-08T09:48:22.056Z,24.70
2022-08-08T09:50:55.738Z,24.36
2022-08-08T09:54:01.160Z,24.31
2022-08-08T09:56:25.373Z,23.89
2022-08-08T09:59:20.045Z,24.12
2022-08-08T10:01:59.119Z,23.66
2022-08-08T10:04:41.723Z,23.60
2022-08-08T10:07:17.365Z,23.26
2022-08-08T10:10:00.701Z,22.82
2022-08-08T10:12:38.859Z,22.98
2022-08-08T10:15:24.394Z,22.63
2022-08-08T10:18:06.304Z,22.84
2022-08-08T10:20:58.194Z,23.20
2022-08-08T10:23:45.034Z,22.98
2022-08-08T10:26:30.536Z,22.83
2022-08-08T10:29:06.009Z,22.61
2022-08-08T10:31:55.444Z,22.53
2022-08-08T10:34:28.809Z,22.17
2022-08-08T10:37:00.523Z,22.15
2022-08-08T10:39:42.841Z,21.85
2022-08-08T10:42:16.989Z,22.01
2022-08-08T10:44:46.121Z,21.76
2022-08-08T10:47:20.746Z,22.27
2022-08-08T10:50:02.278Z,21.75
2022-08-08T10:52:35.697Z,21.61
2022-08-08T10:55:07.461Z,21.83
2022-08-08T10:57:49.988Z,21.84
2022-08-08T11:00:26.133Z,21.36
2022-08-08T11:02:55.331Z,21.07
2022-08-08T11:05:27.450Z,21.57
2022-08-08T11:08:38.135Z,21.13
2022-08-08T11:11:07.974Z,20.63
2022-08-08T11:14:00.537Z,20.33
2022-08-08T11:16:34.658Z,21.09
2022-08-08T11:19:06.015Z,20.43
2022-08-08T11:21:53.952Z,20.57
2022-08-08T11:24:28.919Z,19.99
2022-08-08T11:27:20.001Z,19.97
2022-08-08T11:30:04.436Z,19.75
2022-08-08T11:32:47.435Z,19.91
2022-08-08T11:35:27.287Z,20.11
2022-08-08T11:38:35.724Z,19.47
2022-08-08T11:40:55.852Z,19.81
2022-08-08T11:43:39.093Z,19.43
2022-08-08T11:46:13.915Z,19.22
2022-08-08T11:48:48.002Z,19.05
2022-08-08T11:51:38.245Z,18.59
2022-08-08T11:54:27.465Z,18.69
2022-08-08T11:57:14.177Z,18.74
2022-08-08T12:00:01.604Z,18.57
2022-08-08T12:02:52.104Z,18.46
2022-08-08T12:05:33.499Z,18.31
2022-08-08T12:08:02.636Z,18.17
2022-08-08T12:10:34.087Z,18.00
2022-08-08T12:13:10.530Z,18.17
2022-08-08T12:15:46.939Z,18.03
2022-08-08T12:18:21.322Z,18.05
2022-08-08T12:20:53.255Z,17.72
2022-08-08T12:23:43.419Z,17.86
2022-08-08T12:26:28.181Z,17.51
2022-08-08T12:29:40.470Z,17.58
2022-08-08T12:32:16.924Z,17.29
2022-08-08T12:35:13.395Z,17.30
2022-08-08T12:38:01.527Z,17.26
2022-08-08T12:40:57.096Z,17.46
2022-08-08T12:43:46.556Z,17.22
2022-08-08T12:46:25.141Z,17.26
2022-08-08T12:51:59.177Z,17.01
2022-08-08T12:54:33.031Z,17.34
2022-08-08T12:57:13.162Z,17.05
2022-08-08T13:00:05.094Z,17.04
2022-08-08T13:02:42.093Z,16.77
2022-08-08T13:05:26.641Z,17.10
2022-08-08T13:08:17.210Z,16.90
2022-08-08T13:10:56.823Z,16.71
2022-08-08T13:13:36.975Z,16.40
2022-08-08T13:16:30.035Z,16.48
2022-08-08T13:19:07.967Z,16.34
2022-08-08T13:21:53.528Z,16.46
2022-08-08T13:24:42.083Z,16.44
2022-08-08T13:27:15.754Z,16.33
2022-08-08T13:29:53.150Z,16.38
2022-08-08T13:32:25.274Z,16.12
2022-08-08T13:34:57.762Z,16.27
2022-08-08T13:38:05.711Z,16.04
2022-08-08T13:40:27.568Z,16.07
2022-08-08T13:42:57.682Z,16.06
2022-08-08T13:45:27.350Z,15.92
2022-08-08T13:48:00.014Z,15.51
2022-08-08T13:50:43.960Z,15.88
2022-08-08T13:53:31.365Z,15.77
2022-08-08T13:56:01.685Z,15.44
2022-08-08T13:58:31.153Z,15.54
2022-08-08T14:01:16.371Z,15.30
2022-08-08T14:03:56.196Z,15.45
2022-08-08T14:06:34.274Z,15.47
2022-08-08T14:09:25.510Z,15.37
2022-08-08T14:11:54.556Z,15.37
2022-08-08T14:14:26.998Z,15.18
2022-08-08T14:16:57.430Z,14.83
2022-08-08T14:19:57.973Z,15.05
2022-08-08T14:22:28.691Z,14.64
2022-08-08T14:25:00.779Z,14.52
2022-08-08T14:27:33.311Z,14.66
2022-08-08T14:30:17.916Z,15.13
2022-08-08T14:32:53.266Z,15.07
2022-08-08T14:35:35.090Z,15.02
2022-08-08T14:38:33.919Z,15.00
2022-08-08T14:40:59.602Z,15.22
2022-08-08T14:44:02.864Z,15.13
2022-08-08T14:46:19.344Z,15.52
2022-08-08T14:49:02.684Z,15.11
2022-08-08T14:51:51.803Z,14.91
2022-08-08T14:54:28.882Z,15.22
2022-08-08T14:56:58.612Z,15.08
2022-08-08T14:59:44.413Z,15.02
2022-08-08T15:02:25.618Z,15.12
2022-08-08T15:05:08.005Z,15.22
2022-08-08T15:07:40.476Z,15.07
2022-08-08T15:10:13.061Z,14.68
2022-08-08T15:12:42.187Z,14.61
2022-08-08T15:15:18.804Z,14.14
2022-08-08T15:18:02.157Z,14.79
2022-08-08T15:20:31.329Z,14.74
2022-08-08T15:23:00.317Z,14.46
2022-08-08T15:25:33.075Z,14.55
2022-08-08T15:28:04.165Z,15.06
2022-08-08T15:30:51.419Z,14.91
2022-08-08T15:33:38.230Z,14.96
2022-08-08T15:36:10.232Z,14.64
2022-08-08T15:38:49.536Z,14.84
2022-08-08T15:41:24.572Z,15.08
2022-08-08T15:44:00.702Z,15.10
2022-08-08T15:46:34.860Z,15.05
2022-08-08T15:49:04.587Z,15.01
2022-08-08T15:51:33.620Z,15.33
2022-08-08T15:54:04.181Z,14.88
2022-08-08T15:56:34.001Z,14.91
2022-08-08T15:59:02.438Z,15.04
2022-08-08T16:01:40.447Z,14.98
2022-08-08T16:04:20.159Z,15.29
2022-08-08T16:06:50.433Z,15.00
2022-08-08T16:13:08.885Z,14.99
2022-08-08T16:13:09.902Z,15.18
2022-08-08T16:14:58.398Z,15.31
2022-08-08T16:17:57.374Z,15.54
2022-08-08T16:20:15.250Z,15.48
2022-08-08T16:22:49.323Z,15.30
2022-08-08T16:25:20.993Z,15.39
2022-08-08T16:27:57.138Z,15.42
2022-08-08T16:30:36.380Z,15.33
2022-08-08T16:33:05.728Z,15.35
2022-08-08T16:35:34.311Z,15.45
2022-08-08T16:38:02.807Z,15.75
2022-08-08T16:40:31.974Z,15.64
2022-08-08T16:43:01.905Z,15.71
2022-08-08T16:46:43.736Z,15.72
2022-08-08T16:48:19.383Z,15.47
2022-08-08T16:50:47.918Z,15.65
2022-08-08T16:55:05.263Z,15.67
2022-08-08T16:56:08.833Z,15.83
2022-08-08T16:58:44.408Z,15.96
2022-08-08T17:01:15.883Z,16.12
2022-08-08T17:04:00.910Z,15.90
2022-08-08T17:06:37.374Z,16.04
2022-08-08T17:09:15.304Z,16.29
2022-08-08T17:11:48.996Z,16.68
2022-08-08T17:14:27.076Z,16.21
2022-08-08T17:16:58.373Z,16.32
2022-08-08T17:19:30.346Z,16.94
2022-08-08T17:22:07.100Z,17.21
2022-08-08T17:24:36.729Z,17.14
2022-08-08T17:27:07.527Z,17.93
2022-08-08T17:29:43.819Z,18.12
2022-08-08T17:32:34.348Z,18.39
2022-08-08T17:35:54.376Z,18.03
2022-08-08T17:38:00.671Z,18.52
2022-08-08T17:40:32.192Z,18.54
2022-08-08T17:43:00.941Z,18.39
2022-08-08T17:45:32.799Z,18.64
2022-08-08T17:48:10.107Z,19.04
2022-08-08T17:50:43.850Z,19.22
2022-08-08T17:53:12.712Z,19.54
2022-08-08T17:56:06.270Z,19.84
2022-08-08T17:58:30.394Z,20.35
2022-08-08T18:01:00.176Z,20.46
2022-08-08T18:03:28.663Z,20.78
2022-08-08T18:05:57.177Z,21.34
2022-08-08T18:08:41.480Z,21.84
2022-08-08T18:11:16.169Z,22.02
2022-08-08T18:13:47.193Z,21.96
2022-08-08T18:16:22.854Z,22.75
2022-08-08T18:18:56.046Z,22.41
2022-08-08T18:22:00.236Z,22.59
2022-08-08T18:24:21.206Z,23.32
2022-08-08T18:26:54.828Z,23.13
2022-08-08T18:29:29.804Z,23.23
2022-08-08T18:32:03.565Z,23.82
2022-08-08T18:34:34.155Z,23.56
2022-08-08T18:37:08.420Z,24.14
2022-08-08T18:39:42.048Z,24.29
2022-08-08T18:42:15.809Z,24.22
2022-08-08T18:44:55.569Z,24.61
2022-08-08T18:47:31.264Z,24.66
2022-08-08T18:50:02.508Z,24.93
2022-08-08T18:52:33.875Z,25.11
2022-08-08T18:55:10.167Z,25.40
2022-08-08T18:57:44.610Z,25.29
2022-08-08T19:00:20.096Z,25.47
2022-08-08T19:02:56.859Z,25.46
2022-08-08T19:05:37.710Z,25.62
2022-08-08T19:08:25.245Z,25.79
2022-08-08T19:10:59.266Z,26.11
2022-08-08T19:13:53.857Z,26.29
2022-08-08T19:16:19.404Z,26.43
2022-08-08T19:19:01.968Z,26.58
2022-08-08T19:21:32.935Z,26.85
2022-08-08T19:24:05.721Z,26.93
2022-08-08T19:26:37.438Z,27.09
2022-08-08T19:29:07.107Z,27.28
2022-08-08T19:31:36.145Z,27.29
2022-08-08T19:34:36.579Z,27.60
2022-08-08T19:36:59.283Z,27.58
2022-08-08T19:39:35.592Z,27.81
2022-08-08T19:42:06.749Z,27.93
2022-08-08T19:44:42.667Z,27.86
2022-08-08T19:47:12.593Z,28.08
2022-08-08T19:49:43.039Z,28.39
2022-08-08T19:52:13.312Z,28.47
2022-08-08T19:54:43.212Z,28.59
2022-08-08T19:57:14.235Z,28.73
2022-08-08T19:59:44.769Z,28.76
2022-08-08T20:02:13.406Z,28.69
2022-08-08T20:04:45.611Z,28.99
2022-08-08T20:08:27.072Z,28.98
2022-08-08T20:10:03.024Z,29.36
2022-08-08T20:12:35.229Z,29.38
2022-08-08T20:15:09.756Z,29.24
2022-08-08T20:17:45.049Z,29.82
2022-08-08T20:20:18.863Z,29.72
2022-08-08T20:22:52.514Z,29.71
2022-08-08T20:25:24.728Z,29.67
2022-08-08T20:28:02.151Z,29.92
2022-08-08T20:30:53.671Z,29.82
2022-08-08T20:35:58.511Z,30.39
2022-08-08T20:38:33.392Z,30.60
2022-08-08T20:41:05.464Z,30.59
2022-08-08T20:43:49.323Z,30.66
2022-08-08T20:46:20.248Z,31.00
2022-08-08T20:48:51.310Z,30.88
2022-08-08T20:51:21.357Z,31.25
2022-08-08T20:53:58.989Z,30.94
2022-08-08T20:56:35.948Z,31.31
2022-08-08T20:59:18.246Z,31.09
2022-08-08T21:02:06.553Z,31.29
2022-08-08T21:04:37.264Z,31.53
2022-08-08T21:07:08.319Z,32.12
2022-08-08T21:10:02.276Z,32.17
2022-08-08T21:12:33.260Z,32.27
2022-08-08T21:15:06.948Z,32.08
2022-08-08T21:17:36.861Z,32.45
2022-08-08T21:20:06.990Z,32.95
2022-08-08T21:22:37.922Z,32.90
2022-08-08T21:25:10.807Z,33.12
2022-08-08T21:28:09.249Z,33.00
2022-08-08T21:30:31.672Z,33.16
2022-08-08T21:33:00.063Z,33.15
2022-08-08T21:36:14.317Z,33.34
2022-08-08T21:38:27.185Z,33.47
2022-08-08T21:40:57.185Z,34.07
2022-08-08T21:43:34.224Z,34.07
2022-08-08T21:48:04.363Z,34.17
2022-08-08T21:48:53.934Z,34.01
2022-08-08T21:54:17.506Z,34.51
2022-08-08T21:54:22.350Z,34.22
2022-08-08T21:57:06.780Z,34.81
2022-08-08T22:00:01.337Z,34.82
2022-08-08T22:02:23.997Z,34.98
2022-08-08T22:04:55.904Z,34.56
2022-08-08T22:07:40.358Z,34.90
2022-08-08T22:10:18.162Z,35.00
2022-08-08T22:13:17.241Z,35.10
2022-08-08T22:15:58.584Z,34.77
2022-08-08T22:18:32.444Z,34.95
2022-08-08T22:21:14.342Z,35.48
2022-08-08T22:23:50.254Z,35.25
2022-08-08T22:26:28.179Z,35.37
2022-08-08T22:29:14.283Z,35.60
2022-08-08T22:32:01.500Z,35.60
2022-08-08T22:34:32.574Z,35.79
2022-08-08T22:37:01.490Z,35.88
2022-08-08T22:39:45.650Z,36.21
2022-08-08T22:42:24.047Z,35.86
2022-08-08T22:44:56.685Z,36.01
2022-08-08T22:47:34.178Z,36.29
2022-08-08T22:50:26.789Z,36.31
2022-08-08T22:54:27.494Z,36.36
2022-08-08T22:55:57.645Z,36.51
2022-08-08T22:58:33.848Z,36.63
2022-08-08T23:01:16.636Z,36.50
2022-08-08T23:03:54.983Z,36.85
2022-08-08T23:06:25.033Z,36.65
2022-08-08T23:08:55.306Z,36.97
2022-08-08T23:11:58.165Z,36.90
2022-08-08T23:14:18.379Z,36.98
2022-08-08T23:16:57.610Z,36.93
2022-08-08T23:19:30.986Z,37.20
2022-08-08T23:22:04.464Z,37.43
2022-08-08T23:24:36.176Z,37.38
2022-08-08T23:27:07.156Z,37.67
2022-08-08T23:29:38.106Z,37.56
2022-08-08T23:32:10.129Z,37.73
2022-08-08T23:34:39.669Z,37.86
2022-08-08T23:37:24.582Z,38.19
2022-08-08T23:39:55.527Z,37.98
2022-08-08T23:42:26.516Z,38.08
2022-08-08T23:44:57.565Z,38.12
2022-08-08T23:49:03.891Z,38.33
2022-08-08T23:50:30.210Z,38.63
2022-08-08T23:53:05.062Z,38.58
2022-08-08T23:55:42.172Z,38.69
2022-08-08T23:58:31.907Z,38.82
